KOZW

Details ICAO KOZW
Name LIVINGSTON CO SPENCER J HARDY
Region United States
Timezone America/Detroit (UTC-4.0)
Plans Departing 13
Arriving 10
Stats Elevation 962 ft / 293 m (AMSL)
Location 42.629428° -83.982193°
Runways 1
Magnetic Variation 6.924° W
Sunrise 2018-05-22 10:08:44 UTC / 2018-05-22 06:08:44 Local
Sunset 2018-05-23 00:59:21 UTC / 2018-05-22 20:59:21 Local
Advertisement - Login to hide

Runways

ID Width Length Bearing (true) Bearing (mag) Surface Threshold Offset Overrun Length
13 100 ft / 30 m 4,997 ft / 1,523 m 127.45° 134.37° Asphalt 0 ft / 0 m 0 ft / 0 m
31 100 ft / 30 m 4,997 ft / 1,523 m 307.46° 314.38° Asphalt 0 ft / 0 m 0 ft / 0 m

Map

Weather


0- 5 10 15 20 25 30 35+ Temperature / ° C

Clouds and Precipitation
Forecast for 2018-05-23 06:00 UTC. Updated 36 minutes ago

Ground ~20,000 ft ~40,000 ft Winds

METAR

KOZW 230335Z AUTO 00000KT 2SM BR CLR 12/11 A3007 RMK AO2 T01150111

TAF

Not found

Frequencies

Recorded 118.87 MHz AWOS 3
Approach 127.50 MHz DETROIT APP
Unicom 123.00 MHz CTAF/UNICOM
Departure 127.50 MHz DETROIT DEP
Warning: Do not use this data for real-world aviation or navigation. No guarantee of current accuracy is given.